createdAt,value
2018-12-16T00:02:31.539Z,57.27
2018-12-16T00:05:05.788Z,59.47
2018-12-16T00:07:39.297Z,58.30
2018-12-16T00:10:13.981Z,64.93
2018-12-16T00:12:46.084Z,63.07
2018-12-16T00:15:18.241Z,64.13
2018-12-16T00:17:50.739Z,64.47
2018-12-16T00:20:22.501Z,58.97
2018-12-16T00:22:54.743Z,64.87
2018-12-16T00:25:32.259Z,65.57
2018-12-16T00:28:04.526Z,66.10
2018-12-16T00:33:30.489Z,66.17
2018-12-16T00:36:02.712Z,57.93
2018-12-16T00:38:34.995Z,65.80
2018-12-16T00:41:07.241Z,67.67
2018-12-16T00:43:39.254Z,68.57
2018-12-16T00:46:11.016Z,67.07
2018-12-16T00:48:41.298Z,62.10
2018-12-16T00:51:13.515Z,67.37
2018-12-16T00:53:45.540Z,64.20
2018-12-16T00:56:18.783Z,69.30
2018-12-16T00:58:51.120Z,76.37
2018-12-16T01:01:24.489Z,74.43
2018-12-16T01:03:56.854Z,66.83
2018-12-16T01:06:31.143Z,71.23
2018-12-16T01:09:03.539Z,63.03
2018-12-16T01:11:35.171Z,77.27
2018-12-16T01:14:07.127Z,76.30
2018-12-16T01:16:39.520Z,67.53
2018-12-16T01:19:11.507Z,77.40
2018-12-16T01:21:43.573Z,76.33
2018-12-16T01:24:13.709Z,77.27
2018-12-16T01:26:45.857Z,75.67
2018-12-16T01:29:18.424Z,76.40
2018-12-16T01:31:50.540Z,72.93
2018-12-16T01:34:22.607Z,79.50
2018-12-16T01:36:54.758Z,75.37
2018-12-16T01:39:27.075Z,66.57
2018-12-16T01:42:00.230Z,69.33
2018-12-16T01:44:32.124Z,74.63
2018-12-16T01:47:04.877Z,74.50
2018-12-16T01:49:36.460Z,77.10
2018-12-16T01:52:08.054Z,80.30
2018-12-16T01:54:39.952Z,71.57
2018-12-16T01:57:12.322Z,65.13
2018-12-16T01:59:44.937Z,71.50
2018-12-16T02:02:15.585Z,77.17
2018-12-16T02:04:47.720Z,82.53
2018-12-16T02:07:19.872Z,72.00
2018-12-16T02:09:52.221Z,77.17
2018-12-16T02:12:25.568Z,77.90
2018-12-16T02:14:58.224Z,72.33
2018-12-16T02:17:30.464Z,76.23
2018-12-16T02:20:02.460Z,74.53
2018-12-16T02:22:34.654Z,77.33
2018-12-16T02:25:07.691Z,69.40
2018-12-16T02:27:40.003Z,72.00
2018-12-16T02:30:16.308Z,75.50
2018-12-16T02:32:48.688Z,73.40
2018-12-16T02:35:18.928Z,75.27
2018-12-16T02:37:51.175Z,68.87
2018-12-16T02:40:24.259Z,77.43
2018-12-16T02:42:56.696Z,73.33
2018-12-16T02:45:29.120Z,72.57
2018-12-16T02:48:09.597Z,71.10
2018-12-16T02:50:41.668Z,68.67
2018-12-16T02:53:13.630Z,69.20
2018-12-16T02:55:45.603Z,70.80
2018-12-16T02:58:17.877Z,70.87
2018-12-16T03:00:50.003Z,72.30
2018-12-16T03:03:22.177Z,70.20
2018-12-16T03:05:52.788Z,67.13
2018-12-16T03:08:24.597Z,66.10
2018-12-16T03:10:55.088Z,66.47
2018-12-16T03:13:27.299Z,68.47
2018-12-16T03:15:59.500Z,67.80
2018-12-16T03:18:31.717Z,67.00
2018-12-16T03:21:05.843Z,61.53
2018-12-16T03:23:36.319Z,66.50
2018-12-16T03:26:08.048Z,68.67
2018-12-16T03:28:40.068Z,61.43
2018-12-16T03:31:12.310Z,64.47
2018-12-16T03:33:44.469Z,64.30
2018-12-16T03:36:18.914Z,58.33
2018-12-16T03:38:51.043Z,66.40
2018-12-16T03:41:23.217Z,62.93
2018-12-16T03:43:55.317Z,63.30
2018-12-16T03:46:27.534Z,61.50
2018-12-16T03:48:59.791Z,65.07
2018-12-16T03:51:32.060Z,64.17
2018-12-16T03:54:03.980Z,59.07
2018-12-16T03:56:36.333Z,58.40
2018-12-16T03:59:16.425Z,60.67
2018-12-16T04:01:53.889Z,56.10
2018-12-16T04:04:27.215Z,60.33
2018-12-16T04:06:59.595Z,59.17
2018-12-16T04:09:31.476Z,58.87
2018-12-16T04:12:03.598Z,60.93
2018-12-16T04:14:35.680Z,61.17
2018-12-16T04:17:08.000Z,52.83
2018-12-16T04:19:38.491Z,60.60
2018-12-16T04:22:10.613Z,53.43
2018-12-16T04:24:42.828Z,51.40
2018-12-16T04:27:15.031Z,46.33
2018-12-16T04:29:47.164Z,55.47
2018-12-16T04:32:19.447Z,44.97
2018-12-16T04:34:51.487Z,44.97
2018-12-16T04:37:23.836Z,46.80
2018-12-16T04:39:55.966Z,41.10
2018-12-16T04:42:26.325Z,39.40
2018-12-16T04:44:58.680Z,41.50
2018-12-16T04:47:30.972Z,47.53
2018-12-16T04:50:03.034Z,45.07
2018-12-16T04:52:35.472Z,43.43
2018-12-16T04:55:07.884Z,43.57
2018-12-16T04:57:40.218Z,34.87
2018-12-16T05:00:12.565Z,30.57
2018-12-16T05:02:44.528Z,42.03
2018-12-16T05:05:18.481Z,36.97
2018-12-16T05:07:52.375Z,38.03
2018-12-16T05:10:29.011Z,34.53
2018-12-16T05:13:00.564Z,33.27
2018-12-16T05:15:32.895Z,28.13
2018-12-16T05:18:04.685Z,26.83
2018-12-16T05:20:37.232Z,26.00
2018-12-16T05:23:11.766Z,34.07
2018-12-16T05:25:43.487Z,32.87
2018-12-16T05:28:16.180Z,31.93
2018-12-16T05:30:48.080Z,30.33
2018-12-16T05:33:20.181Z,27.73
2018-12-16T05:35:54.822Z,23.23
2018-12-16T05:41:20.426Z,24.07
2018-12-16T05:43:52.283Z,14.57
2018-12-16T05:46:24.940Z,21.77
2018-12-16T05:48:56.921Z,22.47
2018-12-16T05:51:29.588Z,18.60
2018-12-16T05:54:01.519Z,21.90
2018-12-16T05:56:33.141Z,24.43
2018-12-16T05:59:03.092Z,26.73
2018-12-16T06:01:35.349Z,26.47
2018-12-16T06:04:07.688Z,26.17
2018-12-16T06:06:40.161Z,26.63
2018-12-16T06:09:12.330Z,22.63
2018-12-16T06:11:44.661Z,25.50
2018-12-16T06:14:16.888Z,29.10
2018-12-16T06:16:49.266Z,31.53
2018-12-16T06:19:19.345Z,25.97
2018-12-16T06:21:51.373Z,31.70
2018-12-16T06:24:21.497Z,25.83
2018-12-16T06:26:53.440Z,25.73
2018-12-16T06:29:23.447Z,25.90
2018-12-16T06:31:55.843Z,31.17
2018-12-16T06:34:28.731Z,27.70
2018-12-16T06:37:00.486Z,22.47
2018-12-16T06:39:32.771Z,27.50
2018-12-16T06:42:05.241Z,25.37
2018-12-16T06:44:37.505Z,26.03
2018-12-16T06:47:09.464Z,24.77
2018-12-16T06:49:41.621Z,24.83
2018-12-16T06:52:14.007Z,25.73
2018-12-16T06:57:41.100Z,24.43
2018-12-16T07:00:14.210Z,20.90
2018-12-16T07:02:48.994Z,21.97
2018-12-16T07:05:21.414Z,28.33
2018-12-16T07:07:56.188Z,20.43
2018-12-16T07:10:28.378Z,24.80
2018-12-16T07:12:58.437Z,26.10
2018-12-16T07:15:30.716Z,24.27
2018-12-16T07:18:02.686Z,18.37
2018-12-16T07:20:35.122Z,25.83
2018-12-16T07:23:07.320Z,23.23
2018-12-16T07:25:39.742Z,27.40
2018-12-16T07:28:11.945Z,23.27
2018-12-16T07:30:43.959Z,24.80
2018-12-16T07:33:17.188Z,26.40
2018-12-16T07:35:51.722Z,26.30
2018-12-16T07:38:23.428Z,27.37
2018-12-16T07:40:53.611Z,25.37
2018-12-16T07:43:25.944Z,24.73
2018-12-16T07:45:58.216Z,23.50
2018-12-16T07:48:30.748Z,27.40
2018-12-16T07:51:02.414Z,23.60
2018-12-16T07:53:34.612Z,29.50
2018-12-16T07:56:06.921Z,28.97
2018-12-16T07:58:39.361Z,26.20
2018-12-16T08:01:11.424Z,31.73
2018-12-16T08:03:43.635Z,25.97
2018-12-16T08:06:15.841Z,31.50
2018-12-16T08:08:47.744Z,32.60
2018-12-16T08:11:19.753Z,28.97
2018-12-16T08:13:51.971Z,29.17
2018-12-16T08:16:24.101Z,35.73
2018-12-16T08:18:54.448Z,22.30
2018-12-16T08:21:27.039Z,43.37
2018-12-16T08:23:59.520Z,34.53
2018-12-16T08:26:31.466Z,41.77
2018-12-16T08:29:04.005Z,30.73
2018-12-16T08:31:36.175Z,26.57
2018-12-16T08:34:08.115Z,37.13
2018-12-16T08:36:40.428Z,28.27
2018-12-16T08:39:12.443Z,33.00
2018-12-16T08:41:44.667Z,30.17
2018-12-16T08:44:15.103Z,32.17
2018-12-16T08:46:47.341Z,33.73
2018-12-16T08:49:17.616Z,28.80
2018-12-16T08:51:49.399Z,30.83
2018-12-16T08:54:21.929Z,33.23
2018-12-16T08:56:54.345Z,32.80
2018-12-16T08:59:26.655Z,32.23
2018-12-16T09:01:59.092Z,35.27
2018-12-16T09:04:31.064Z,32.73
2018-12-16T09:07:04.031Z,34.23
2018-12-16T09:09:36.539Z,30.00
2018-12-16T09:12:08.309Z,32.23
2018-12-16T09:14:42.719Z,33.73
2018-12-16T09:17:14.858Z,28.57
2018-12-16T09:19:47.136Z,33.63
2018-12-16T09:22:17.300Z,34.10
2018-12-16T09:24:47.534Z,31.97
2018-12-16T09:27:19.927Z,32.13
2018-12-16T09:30:00.794Z,27.37
2018-12-16T09:32:33.269Z,30.50
2018-12-16T09:35:05.905Z,24.50
2018-12-16T09:37:40.490Z,27.40
2018-12-16T09:40:12.132Z,32.20
2018-12-16T09:42:45.188Z,24.63
2018-12-16T09:45:17.803Z,28.90
2018-12-16T09:47:50.167Z,30.07
2018-12-16T09:50:22.468Z,23.50
2018-12-16T09:52:54.752Z,32.43
2018-12-16T09:55:26.992Z,16.77
2018-12-16T09:57:59.296Z,21.87
2018-12-16T10:00:31.803Z,31.37
2018-12-16T10:03:06.389Z,31.50
2018-12-16T10:05:38.268Z,33.23
2018-12-16T10:08:10.602Z,31.80
2018-12-16T10:10:43.060Z,33.63
2018-12-16T10:13:15.169Z,35.03
2018-12-16T10:15:47.550Z,23.30
2018-12-16T10:18:19.841Z,33.33
2018-12-16T10:20:52.131Z,19.40
2018-12-16T10:23:24.837Z,31.30
2018-12-16T10:25:55.413Z,34.43
2018-12-16T10:28:27.631Z,30.90
2018-12-16T10:30:59.784Z,19.83
2018-12-16T10:33:31.749Z,34.87
2018-12-16T10:36:03.804Z,36.23
2018-12-16T10:38:35.772Z,31.07
2018-12-16T10:41:08.067Z,33.70
2018-12-16T10:43:40.349Z,21.23
2018-12-16T10:46:12.435Z,34.20
2018-12-16T10:48:44.318Z,27.77
2018-12-16T10:51:21.101Z,27.93
2018-12-16T10:53:52.879Z,25.93
2018-12-16T10:56:25.074Z,26.50
2018-12-16T10:58:57.319Z,29.50
2018-12-16T11:01:29.630Z,31.30
2018-12-16T11:04:01.524Z,29.30
2018-12-16T11:06:34.161Z,33.60
2018-12-16T11:09:06.693Z,33.17
2018-12-16T11:11:40.993Z,32.13
2018-12-16T11:14:14.095Z,22.67
2018-12-16T11:16:46.045Z,31.40
2018-12-16T11:19:17.888Z,37.03
2018-12-16T11:21:49.996Z,23.07
2018-12-16T11:24:24.506Z,34.63
2018-12-16T11:26:56.333Z,23.93
2018-12-16T11:29:28.693Z,32.77
2018-12-16T11:32:02.573Z,20.67
2018-12-16T11:34:34.164Z,31.70
2018-12-16T11:37:04.684Z,31.47
2018-12-16T11:39:36.747Z,32.73
2018-12-16T11:42:08.944Z,31.60
2018-12-16T11:44:41.627Z,28.83
2018-12-16T11:47:13.753Z,27.80
2018-12-16T11:49:46.286Z,32.13
2018-12-16T11:52:18.201Z,33.33
2018-12-16T11:54:50.545Z,28.90
2018-12-16T11:57:24.849Z,30.10
2018-12-16T11:59:58.512Z,35.63
2018-12-16T12:02:47.055Z,34.40
2018-12-16T12:05:18.752Z,34.53
2018-12-16T12:07:50.992Z,31.67
2018-12-16T12:10:24.260Z,32.73
2018-12-16T12:12:56.714Z,27.03
2018-12-16T12:15:31.187Z,32.87
2018-12-16T12:18:02.829Z,32.33
2018-12-16T12:25:36.939Z,29.80
2018-12-16T12:28:07.803Z,32.90
2018-12-16T12:30:40.396Z,33.83
2018-12-16T12:33:13.480Z,31.63
2018-12-16T12:35:45.724Z,32.87
2018-12-16T12:38:17.900Z,33.10
2018-12-16T12:40:50.852Z,32.23
2018-12-16T12:43:21.298Z,32.33
2018-12-16T12:45:53.716Z,30.87
2018-12-16T12:48:25.803Z,34.33
2018-12-16T12:50:58.060Z,33.43
2018-12-16T12:53:36.280Z,23.40
2018-12-16T12:56:10.083Z,35.37
2018-12-16T12:58:43.108Z,33.73
2018-12-16T13:01:14.666Z,31.23
2018-12-16T13:03:46.981Z,34.73
2018-12-16T13:06:18.971Z,30.90
2018-12-16T13:08:51.225Z,31.67
2018-12-16T13:11:27.097Z,33.63
2018-12-16T13:13:59.828Z,29.73
2018-12-16T13:16:32.092Z,33.70
2018-12-16T13:21:59.658Z,26.97
2018-12-16T13:24:30.261Z,33.17
2018-12-16T13:27:02.638Z,35.37
2018-12-16T13:29:34.752Z,36.43
2018-12-16T13:32:05.001Z,30.17
2018-12-16T13:34:37.440Z,33.03
2018-12-16T13:37:18.421Z,32.40
2018-12-16T13:39:50.591Z,24.47
2018-12-16T13:42:22.614Z,35.13
2018-12-16T13:44:55.677Z,31.53
2018-12-16T13:47:27.318Z,30.53
2018-12-16T13:49:57.600Z,31.70
2018-12-16T13:52:31.869Z,31.23
2018-12-16T13:55:03.617Z,31.97
2018-12-16T13:57:34.880Z,28.83
2018-12-16T14:00:09.754Z,34.10
2018-12-16T14:02:42.183Z,29.93
2018-12-16T14:05:14.379Z,33.37
2018-12-16T14:07:46.541Z,31.80
2018-12-16T14:10:21.231Z,33.00
2018-12-16T14:12:55.648Z,28.73
2018-12-16T14:15:27.460Z,26.57
2018-12-16T14:17:59.756Z,33.33
2018-12-16T14:20:32.000Z,31.73
2018-12-16T14:23:04.561Z,38.50
2018-12-16T14:25:39.156Z,93.80
2018-12-16T14:28:13.054Z,44.00
2018-12-16T14:30:44.766Z,34.37
2018-12-16T14:33:16.970Z,32.70
2018-12-16T14:38:41.153Z,41.90
2018-12-16T14:41:16.646Z,48.43
2018-12-16T14:43:48.394Z,55.07
2018-12-16T14:46:20.619Z,40.37
2018-12-16T14:48:52.986Z,151.43
2018-12-16T14:51:24.905Z,45.77
2018-12-16T14:53:57.021Z,44.80
2018-12-16T14:56:29.610Z,40.43
2018-12-16T14:59:01.386Z,39.40
2018-12-16T15:01:31.537Z,42.83
2018-12-16T15:04:03.719Z,48.07
2018-12-16T15:06:35.804Z,48.83
2018-12-16T15:09:09.169Z,45.87
2018-12-16T15:11:41.037Z,44.33
2018-12-16T15:14:13.460Z,43.30
2018-12-16T15:16:43.652Z,41.67
2018-12-16T15:19:15.923Z,41.13
2018-12-16T15:21:46.157Z,44.33
2018-12-16T15:24:18.476Z,45.03
2018-12-16T15:26:50.646Z,41.63
2018-12-16T15:29:22.195Z,42.37
2018-12-16T15:31:55.342Z,49.93
2018-12-16T15:34:27.591Z,60.23
2018-12-16T15:36:57.826Z,51.93
2018-12-16T15:39:30.112Z,48.83
2018-12-16T15:42:02.218Z,43.07
2018-12-16T15:44:34.835Z,44.10
2018-12-16T15:47:06.797Z,42.77
2018-12-16T15:49:38.594Z,41.03
2018-12-16T15:52:08.729Z,49.20
2018-12-16T15:54:40.835Z,43.70
2018-12-16T15:57:13.189Z,44.90
2018-12-16T15:59:45.228Z,39.33
2018-12-16T16:02:17.399Z,49.70
2018-12-16T16:04:49.548Z,49.37
2018-12-16T16:07:21.628Z,49.33
2018-12-16T16:09:53.657Z,47.13
2018-12-16T16:12:25.835Z,44.13
2018-12-16T16:14:58.407Z,39.10
2018-12-16T16:17:30.758Z,45.40
2018-12-16T16:20:03.147Z,42.53
2018-12-16T16:22:35.581Z,43.93
2018-12-16T16:25:07.814Z,42.73
2018-12-16T16:27:39.727Z,45.77
2018-12-16T16:30:11.808Z,46.63
2018-12-16T16:32:46.198Z,41.17
2018-12-16T16:35:18.025Z,44.63
2018-12-16T16:37:50.217Z,40.33
2018-12-16T16:40:22.781Z,41.50
2018-12-16T16:42:55.051Z,41.50
2018-12-16T16:45:27.856Z,38.10
2018-12-16T16:48:00.354Z,55.27
2018-12-16T16:50:33.378Z,70.20
2018-12-16T16:53:06.948Z,46.00
2018-12-16T16:55:40.136Z,40.00
2018-12-16T16:58:13.043Z,40.00
2018-12-16T17:00:48.149Z,39.53
2018-12-16T17:03:20.345Z,40.73
2018-12-16T17:05:54.955Z,39.90
2018-12-16T17:08:26.712Z,45.07
2018-12-16T17:10:57.474Z,47.13
2018-12-16T17:13:28.490Z,48.83
2018-12-16T17:16:00.585Z,43.57
2018-12-16T17:18:32.812Z,40.93
2018-12-16T17:21:04.756Z,41.67
2018-12-16T17:23:37.020Z,45.37
2018-12-16T17:26:08.962Z,53.93
2018-12-16T17:28:41.017Z,45.23
2018-12-16T17:31:13.067Z,40.53
2018-12-16T17:33:47.820Z,101.70
2018-12-16T17:36:19.798Z,43.37
2018-12-16T17:38:51.843Z,39.60
2018-12-16T17:41:24.003Z,49.67
2018-12-16T17:43:56.596Z,45.47
2018-12-16T17:46:26.636Z,47.73
2018-12-16T17:48:58.766Z,48.17
2018-12-16T17:51:31.124Z,46.53
2018-12-16T17:54:03.352Z,42.73
2018-12-16T17:56:37.128Z,48.87
2018-12-16T17:59:09.164Z,47.27
2018-12-16T18:01:41.557Z,51.73
2018-12-16T18:04:13.431Z,46.67
2018-12-16T18:06:45.616Z,44.40
2018-12-16T18:09:16.245Z,46.83
2018-12-16T18:11:48.796Z,51.60
2018-12-16T18:14:20.925Z,47.47
2018-12-16T18:16:54.403Z,46.80
2018-12-16T18:19:27.087Z,44.23
2018-12-16T18:21:59.586Z,44.40
2018-12-16T18:24:31.544Z,45.10
2018-12-16T18:27:02.014Z,41.83
2018-12-16T18:29:34.808Z,47.03
2018-12-16T18:32:08.761Z,42.67
2018-12-16T18:34:42.984Z,52.70
2018-12-16T18:37:14.811Z,47.70
2018-12-16T18:39:47.140Z,48.57
2018-12-16T18:42:19.505Z,50.13
2018-12-16T18:44:49.618Z,51.20
2018-12-16T18:47:21.796Z,47.87
2018-12-16T18:49:53.817Z,49.00
2018-12-16T18:52:28.869Z,45.43
2018-12-16T18:55:01.100Z,48.60
2018-12-16T18:57:31.304Z,43.57
2018-12-16T19:00:04.440Z,47.93
2018-12-16T19:02:36.975Z,44.20
2018-12-16T19:05:08.928Z,40.63
2018-12-16T19:07:41.369Z,42.60
2018-12-16T19:10:13.359Z,49.17
2018-12-16T19:12:47.406Z,73.00
2018-12-16T19:15:20.306Z,39.27
2018-12-16T19:17:50.687Z,38.60
2018-12-16T19:20:22.950Z,45.00
2018-12-16T19:22:55.161Z,41.93
2018-12-16T19:25:29.310Z,42.03
2018-12-16T19:28:03.113Z,46.33
2018-12-16T19:30:35.264Z,47.37
2018-12-16T19:33:08.226Z,53.47
2018-12-16T19:35:40.507Z,42.33
2018-12-16T19:38:13.204Z,39.40
2018-12-16T19:40:46.111Z,43.20
2018-12-16T19:46:11.769Z,47.03
2018-12-16T19:48:45.940Z,40.10
2018-12-16T19:51:18.143Z,42.23
2018-12-16T19:53:50.201Z,42.87
2018-12-16T19:56:22.782Z,43.83
2018-12-16T19:58:53.626Z,43.33
2018-12-16T20:01:26.019Z,57.40
2018-12-16T20:04:03.070Z,44.10
2018-12-16T20:06:38.829Z,59.77
2018-12-16T20:09:13.711Z,46.77
2018-12-16T20:11:48.404Z,48.43
2018-12-16T20:14:19.850Z,40.53
2018-12-16T20:16:55.258Z,36.77
2018-12-16T20:19:28.221Z,48.97
2018-12-16T20:22:00.533Z,40.50
2018-12-16T20:24:33.022Z,38.40
2018-12-16T20:27:11.860Z,44.63
2018-12-16T20:29:39.141Z,44.13
2018-12-16T20:32:11.631Z,42.33
2018-12-16T20:34:41.874Z,42.60
2018-12-16T20:37:14.199Z,42.73
2018-12-16T20:39:44.532Z,41.70
2018-12-16T20:42:16.595Z,42.23
2018-12-16T20:44:54.719Z,47.70
2018-12-16T20:47:29.416Z,46.87
2018-12-16T20:50:01.847Z,45.43
2018-12-16T20:52:33.577Z,43.63
2018-12-16T20:55:06.724Z,40.47
2018-12-16T20:57:39.220Z,39.87
2018-12-16T21:03:10.678Z,42.53
2018-12-16T21:05:42.740Z,39.70
2018-12-16T21:08:14.584Z,40.80
2018-12-16T21:10:48.138Z,42.90
2018-12-16T21:13:25.190Z,41.83
2018-12-16T21:16:02.179Z,40.23
2018-12-16T21:18:35.633Z,41.40
2018-12-16T21:21:12.809Z,41.30
2018-12-16T21:23:48.140Z,43.00
2018-12-16T21:26:22.342Z,42.77
2018-12-16T21:28:56.752Z,43.07
2018-12-16T21:31:29.273Z,43.00
2018-12-16T21:34:01.390Z,43.23
2018-12-16T21:36:34.072Z,39.20
2018-12-16T21:39:09.760Z,41.80
2018-12-16T21:41:43.138Z,41.03
2018-12-16T21:44:15.282Z,43.03
2018-12-16T21:46:47.544Z,43.67
2018-12-16T21:49:20.009Z,40.60
2018-12-16T21:51:52.060Z,40.83
2018-12-16T21:54:25.925Z,47.53
2018-12-16T21:56:58.611Z,42.33
2018-12-16T21:59:28.881Z,45.67
2018-12-16T22:02:04.997Z,43.40
2018-12-16T22:04:37.168Z,40.63
2018-12-16T22:07:09.105Z,44.87
2018-12-16T22:09:39.487Z,44.50
2018-12-16T22:12:11.831Z,41.70
2018-12-16T22:14:43.704Z,40.60
2018-12-16T22:17:30.284Z,48.20
2018-12-16T22:20:02.228Z,44.30
2018-12-16T22:22:36.955Z,44.77
2018-12-16T22:25:10.118Z,52.13
2018-12-16T22:27:42.517Z,47.17
2018-12-16T22:30:16.270Z,42.93
2018-12-16T22:32:49.080Z,40.33
2018-12-16T22:35:21.538Z,38.87
2018-12-16T22:37:53.795Z,41.87
2018-12-16T22:40:26.663Z,44.23
2018-12-16T22:43:01.303Z,40.43
2018-12-16T22:45:33.165Z,41.53
2018-12-16T22:48:05.410Z,42.23
2018-12-16T22:50:37.631Z,42.93
2018-12-16T22:53:09.896Z,44.40
2018-12-16T22:55:41.795Z,41.77
2018-12-16T22:58:14.051Z,42.00
2018-12-16T23:00:51.320Z,35.27
2018-12-16T23:03:25.853Z,43.70
2018-12-16T23:06:03.837Z,42.47
2018-12-16T23:08:36.277Z,40.70
2018-12-16T23:11:08.260Z,43.30
2018-12-16T23:13:40.881Z,38.53
2018-12-16T23:16:12.813Z,40.90
2018-12-16T23:18:44.924Z,40.23
2018-12-16T23:21:16.871Z,40.27
2018-12-16T23:23:47.410Z,39.53
2018-12-16T23:26:20.556Z,39.87
2018-12-16T23:28:50.831Z,43.20
2018-12-16T23:31:23.360Z,37.63
2018-12-16T23:34:17.508Z,37.40
2018-12-16T23:36:51.816Z,40.07
2018-12-16T23:39:23.859Z,38.17
2018-12-16T23:41:55.926Z,40.50
2018-12-16T23:44:30.365Z,41.50
2018-12-16T23:47:02.235Z,41.80
2018-12-16T23:49:36.634Z,39.37
2018-12-16T23:52:09.156Z,38.27
2018-12-16T23:54:41.283Z,35.93
2018-12-16T23:57:13.583Z,37.87
2018-12-16T23:59:45.908Z,35.80
